sensor_id;sensor_type;location;lat;lon;timestamp;temperature;humidity
67769;DHT22;54569;52.018;5.584;2022-12-07T00:02:05;5.30;88.00
67769;DHT22;54569;52.018;5.584;2022-12-07T00:04:30;5.30;88.00
67769;DHT22;54569;52.018;5.584;2022-12-07T00:06:56;5.30;88.00
67769;DHT22;54569;52.018;5.584;2022-12-07T00:09:22;5.20;87.90
67769;DHT22;54569;52.018;5.584;2022-12-07T00:11:51;5.20;88.00
67769;DHT22;54569;52.018;5.584;2022-12-07T00:14:17;5.20;88.20
67769;DHT22;54569;52.018;5.584;2022-12-07T00:16:44;5.10;88.20
67769;DHT22;54569;52.018;5.584;2022-12-07T00:19:12;5.10;88.30
67769;DHT22;54569;52.018;5.584;2022-12-07T00:21:38;5.10;88.40
67769;DHT22;54569;52.018;5.584;2022-12-07T00:24:04;5.20;88.50
67769;DHT22;54569;52.018;5.584;2022-12-07T00:26:35;5.10;88.40
67769;DHT22;54569;52.018;5.584;2022-12-07T00:31:37;5.10;88.40
67769;DHT22;54569;52.018;5.584;2022-12-07T00:34:05;5.10;89.00
67769;DHT22;54569;52.018;5.584;2022-12-07T00:36:31;5.10;88.50
67769;DHT22;54569;52.018;5.584;2022-12-07T00:38:58;5.10;88.50
67769;DHT22;54569;52.018;5.584;2022-12-07T00:41:26;5.00;88.50
67769;DHT22;54569;52.018;5.584;2022-12-07T00:43:52;5.10;88.60
67769;DHT22;54569;52.018;5.584;2022-12-07T00:46:19;5.00;88.70
67769;DHT22;54569;52.018;5.584;2022-12-07T00:48:46;5.00;88.70
67769;DHT22;54569;52.018;5.584;2022-12-07T00:51:13;5.00;88.60
67769;DHT22;54569;52.018;5.584;2022-12-07T00:53:39;5.00;88.70
67769;DHT22;54569;52.018;5.584;2022-12-07T00:56:11;4.90;88.60
67769;DHT22;54569;52.018;5.584;2022-12-07T00:58:38;4.90;88.80
67769;DHT22;54569;52.018;5.584;2022-12-07T01:01:05;4.90;88.80
67769;DHT22;54569;52.018;5.584;2022-12-07T01:03:31;4.90;89.40
67769;DHT22;54569;52.018;5.584;2022-12-07T01:05:57;4.90;88.80
67769;DHT22;54569;52.018;5.584;2022-12-07T01:08:24;4.90;88.90
67769;DHT22;54569;52.018;5.584;2022-12-07T01:11:04;4.90;89.00
67769;DHT22;54569;52.018;5.584;2022-12-07T01:13:31;4.90;89.00
67769;DHT22;54569;52.018;5.584;2022-12-07T01:15:59;4.90;89.10
67769;DHT22;54569;52.018;5.584;2022-12-07T01:18:26;4.80;89.00
67769;DHT22;54569;52.018;5.584;2022-12-07T01:23:29;4.80;89.30
67769;DHT22;54569;52.018;5.584;2022-12-07T01:25:59;4.80;89.10
67769;DHT22;54569;52.018;5.584;2022-12-07T01:28:25;4.80;89.10
67769;DHT22;54569;52.018;5.584;2022-12-07T01:30:58;4.80;89.00
67769;DHT22;54569;52.018;5.584;2022-12-07T01:33:26;4.80;89.00
67769;DHT22;54569;52.018;5.584;2022-12-07T01:35:52;4.80;89.10
67769;DHT22;54569;52.018;5.584;2022-12-07T01:38:18;4.80;89.10
67769;DHT22;54569;52.018;5.584;2022-12-07T01:40:43;4.80;89.10
67769;DHT22;54569;52.018;5.584;2022-12-07T01:43:17;4.80;89.20
67769;DHT22;54569;52.018;5.584;2022-12-07T01:45:43;4.80;89.10
67769;DHT22;54569;52.018;5.584;2022-12-07T01:48:11;4.70;88.90
67769;DHT22;54569;52.018;5.584;2022-12-07T01:50:38;4.70;88.80
67769;DHT22;54569;52.018;5.584;2022-12-07T01:53:06;4.70;88.80
67769;DHT22;54569;52.018;5.584;2022-12-07T01:55:35;4.70;88.80
67769;DHT22;54569;52.018;5.584;2022-12-07T01:58:03;4.70;88.80
67769;DHT22;54569;52.018;5.584;2022-12-07T02:00:29;4.60;88.80
67769;DHT22;54569;52.018;5.584;2022-12-07T02:02:56;4.60;88.80
67769;DHT22;54569;52.018;5.584;2022-12-07T02:05:25;4.60;88.80
67769;DHT22;54569;52.018;5.584;2022-12-07T02:07:54;4.60;88.80
67769;DHT22;54569;52.018;5.584;2022-12-07T02:10:24;4.60;88.80
67769;DHT22;54569;52.018;5.584;2022-12-07T02:12:57;4.60;88.80
67769;DHT22;54569;52.018;5.584;2022-12-07T02:15:51;4.60;88.90
67769;DHT22;54569;52.018;5.584;2022-12-07T02:20:54;4.50;88.90
67769;DHT22;54569;52.018;5.584;2022-12-07T02:29:18;4.50;89.10
67769;DHT22;54569;52.018;5.584;2022-12-07T02:34:34;4.40;89.00
67769;DHT22;54569;52.018;5.584;2022-12-07T02:37:09;4.40;89.00
67769;DHT22;54569;52.018;5.584;2022-12-07T02:39:43;4.40;89.00
67769;DHT22;54569;52.018;5.584;2022-12-07T02:42:33;4.40;90.40
67769;DHT22;54569;52.018;5.584;2022-12-07T02:45:00;4.40;89.90
67769;DHT22;54569;52.018;5.584;2022-12-07T02:47:27;4.40;89.20
67769;DHT22;54569;52.018;5.584;2022-12-07T02:49:54;4.50;89.00
67769;DHT22;54569;52.018;5.584;2022-12-07T02:52:20;4.50;88.90
67769;DHT22;54569;52.018;5.584;2022-12-07T02:54:46;4.60;88.80
67769;DHT22;54569;52.018;5.584;2022-12-07T03:00:10;4.60;88.70
67769;DHT22;54569;52.018;5.584;2022-12-07T03:08:37;4.70;88.40
67769;DHT22;54569;52.018;5.584;2022-12-07T03:11:10;4.80;89.00
67769;DHT22;54569;52.018;5.584;2022-12-07T03:14:15;4.80;88.10
67769;DHT22;54569;52.018;5.584;2022-12-07T03:16:55;4.80;88.30
67769;DHT22;54569;52.018;5.584;2022-12-07T03:19:24;4.90;88.00
67769;DHT22;54569;52.018;5.584;2022-12-07T03:21:56;4.90;87.80
67769;DHT22;54569;52.018;5.584;2022-12-07T03:24:27;4.90;87.60
67769;DHT22;54569;52.018;5.584;2022-12-07T03:29:48;5.00;87.60
67769;DHT22;54569;52.018;5.584;2022-12-07T03:32:29;5.00;87.30
67769;DHT22;54569;52.018;5.584;2022-12-07T03:40:44;5.10;87.50
67769;DHT22;54569;52.018;5.584;2022-12-07T03:43:10;5.10;87.50
67769;DHT22;54569;52.018;5.584;2022-12-07T03:45:42;5.10;87.20
67769;DHT22;54569;52.018;5.584;2022-12-07T03:51:20;5.10;87.30
67769;DHT22;54569;52.018;5.584;2022-12-07T03:53:51;5.10;87.70
67769;DHT22;54569;52.018;5.584;2022-12-07T03:56:19;5.10;87.20
67769;DHT22;54569;52.018;5.584;2022-12-07T03:58:46;5.10;87.10
67769;DHT22;54569;52.018;5.584;2022-12-07T04:01:12;5.00;87.20
67769;DHT22;54569;52.018;5.584;2022-12-07T04:03:37;5.00;87.30
67769;DHT22;54569;52.018;5.584;2022-12-07T04:06:03;5.00;87.40
67769;DHT22;54569;52.018;5.584;2022-12-07T04:08:29;5.00;87.50
67769;DHT22;54569;52.018;5.584;2022-12-07T04:10:55;4.90;87.50
67769;DHT22;54569;52.018;5.584;2022-12-07T04:13:20;4.90;87.60
67769;DHT22;54569;52.018;5.584;2022-12-07T04:15:46;4.80;87.70
67769;DHT22;54569;52.018;5.584;2022-12-07T04:18:12;4.80;87.90
67769;DHT22;54569;52.018;5.584;2022-12-07T04:20:37;4.80;88.00
67769;DHT22;54569;52.018;5.584;2022-12-07T04:23:03;4.80;88.40
67769;DHT22;54569;52.018;5.584;2022-12-07T04:25:28;4.80;88.60
67769;DHT22;54569;52.018;5.584;2022-12-07T04:27:54;4.80;88.50
67769;DHT22;54569;52.018;5.584;2022-12-07T04:30:20;4.80;88.50
67769;DHT22;54569;52.018;5.584;2022-12-07T04:32:45;4.80;88.50
67769;DHT22;54569;52.018;5.584;2022-12-07T04:35:11;4.90;88.50
67769;DHT22;54569;52.018;5.584;2022-12-07T04:37:37;4.90;88.50
67769;DHT22;54569;52.018;5.584;2022-12-07T04:40:06;4.90;88.30
67769;DHT22;54569;52.018;5.584;2022-12-07T04:42:32;4.90;88.20
67769;DHT22;54569;52.018;5.584;2022-12-07T04:44:58;4.90;88.20
67769;DHT22;54569;52.018;5.584;2022-12-07T04:47:24;4.90;88.10
67769;DHT22;54569;52.018;5.584;2022-12-07T04:49:49;5.00;88.20
67769;DHT22;54569;52.018;5.584;2022-12-07T04:52:15;5.00;88.00
67769;DHT22;54569;52.018;5.584;2022-12-07T04:54:40;5.00;88.00
67769;DHT22;54569;52.018;5.584;2022-12-07T04:57:06;5.00;88.00
67769;DHT22;54569;52.018;5.584;2022-12-07T04:59:32;5.00;87.90
67769;DHT22;54569;52.018;5.584;2022-12-07T05:01:57;5.00;87.90
67769;DHT22;54569;52.018;5.584;2022-12-07T05:04:23;5.00;88.00
67769;DHT22;54569;52.018;5.584;2022-12-07T05:06:48;5.00;88.00
67769;DHT22;54569;52.018;5.584;2022-12-07T05:09:14;5.00;88.00
67769;DHT22;54569;52.018;5.584;2022-12-07T05:11:40;5.00;88.00
67769;DHT22;54569;52.018;5.584;2022-12-07T05:14:14;5.00;88.00
67769;DHT22;54569;52.018;5.584;2022-12-07T05:16:40;5.00;88.00
67769;DHT22;54569;52.018;5.584;2022-12-07T05:19:07;5.00;90.00
67769;DHT22;54569;52.018;5.584;2022-12-07T05:21:32;4.90;88.30
67769;DHT22;54569;52.018;5.584;2022-12-07T05:23:58;4.90;88.00
67769;DHT22;54569;52.018;5.584;2022-12-07T05:26:24;4.90;88.00
67769;DHT22;54569;52.018;5.584;2022-12-07T05:28:51;5.00;88.00
67769;DHT22;54569;52.018;5.584;2022-12-07T05:31:17;4.90;87.90
67769;DHT22;54569;52.018;5.584;2022-12-07T05:33:42;4.90;87.90
67769;DHT22;54569;52.018;5.584;2022-12-07T05:36:08;4.90;87.90
67769;DHT22;54569;52.018;5.584;2022-12-07T05:38:34;4.90;87.90
67769;DHT22;54569;52.018;5.584;2022-12-07T05:41:01;4.90;87.90
67769;DHT22;54569;52.018;5.584;2022-12-07T05:43:28;4.80;87.90
67769;DHT22;54569;52.018;5.584;2022-12-07T05:45:54;4.80;87.90
67769;DHT22;54569;52.018;5.584;2022-12-07T05:48:19;4.80;88.00
67769;DHT22;54569;52.018;5.584;2022-12-07T05:50:48;4.80;88.20
67769;DHT22;54569;52.018;5.584;2022-12-07T05:53:14;4.70;88.20
67769;DHT22;54569;52.018;5.584;2022-12-07T05:55:39;4.70;88.30
67769;DHT22;54569;52.018;5.584;2022-12-07T05:58:05;4.70;88.30
67769;DHT22;54569;52.018;5.584;2022-12-07T06:00:49;4.70;88.40
67769;DHT22;54569;52.018;5.584;2022-12-07T06:03:15;4.60;88.50
67769;DHT22;54569;52.018;5.584;2022-12-07T06:05:41;4.60;88.50
67769;DHT22;54569;52.018;5.584;2022-12-07T06:08:07;4.70;88.60
67769;DHT22;54569;52.018;5.584;2022-12-07T06:10:33;4.70;88.50
67769;DHT22;54569;52.018;5.584;2022-12-07T06:12:58;4.70;88.40
67769;DHT22;54569;52.018;5.584;2022-12-07T06:15:24;4.70;88.30
67769;DHT22;54569;52.018;5.584;2022-12-07T06:17:50;4.70;88.10
67769;DHT22;54569;52.018;5.584;2022-12-07T06:20:15;4.80;88.10
67769;DHT22;54569;52.018;5.584;2022-12-07T06:22:41;4.70;88.00
67769;DHT22;54569;52.018;5.584;2022-12-07T06:25:07;4.70;88.10
67769;DHT22;54569;52.018;5.584;2022-12-07T06:27:33;4.70;88.10
67769;DHT22;54569;52.018;5.584;2022-12-07T06:29:59;4.70;88.10
67769;DHT22;54569;52.018;5.584;2022-12-07T06:32:25;4.70;88.20
67769;DHT22;54569;52.018;5.584;2022-12-07T06:34:50;4.70;88.20
67769;DHT22;54569;52.018;5.584;2022-12-07T06:37:16;4.70;88.20
67769;DHT22;54569;52.018;5.584;2022-12-07T06:39:42;4.70;88.20
67769;DHT22;54569;52.018;5.584;2022-12-07T06:42:07;4.70;88.20
67769;DHT22;54569;52.018;5.584;2022-12-07T06:44:33;4.60;88.10
67769;DHT22;54569;52.018;5.584;2022-12-07T06:47:00;4.60;88.10
67769;DHT22;54569;52.018;5.584;2022-12-07T06:49:25;4.60;88.10
67769;DHT22;54569;52.018;5.584;2022-12-07T06:51:51;4.50;88.20
67769;DHT22;54569;52.018;5.584;2022-12-07T06:54:17;4.60;88.40
67769;DHT22;54569;52.018;5.584;2022-12-07T06:56:42;4.60;88.70
67769;DHT22;54569;52.018;5.584;2022-12-07T06:59:08;4.50;88.60
67769;DHT22;54569;52.018;5.584;2022-12-07T07:01:35;4.60;88.50
67769;DHT22;54569;52.018;5.584;2022-12-07T07:04:01;4.60;88.40
67769;DHT22;54569;52.018;5.584;2022-12-07T07:06:27;4.60;88.30
67769;DHT22;54569;52.018;5.584;2022-12-07T07:08:53;4.60;88.40
67769;DHT22;54569;52.018;5.584;2022-12-07T07:11:19;4.60;88.50
67769;DHT22;54569;52.018;5.584;2022-12-07T07:13:45;4.60;88.50
67769;DHT22;54569;52.018;5.584;2022-12-07T07:16:11;4.60;88.40
67769;DHT22;54569;52.018;5.584;2022-12-07T07:18:36;4.60;88.20
67769;DHT22;54569;52.018;5.584;2022-12-07T07:21:03;4.60;88.10
67769;DHT22;54569;52.018;5.584;2022-12-07T07:23:29;4.60;88.20
67769;DHT22;54569;52.018;5.584;2022-12-07T07:25:54;4.50;88.20
67769;DHT22;54569;52.018;5.584;2022-12-07T07:28:20;4.50;88.10
67769;DHT22;54569;52.018;5.584;2022-12-07T07:30:46;4.40;88.10
67769;DHT22;54569;52.018;5.584;2022-12-07T07:33:12;4.40;88.30
67769;DHT22;54569;52.018;5.584;2022-12-07T07:35:38;4.40;88.40
67769;DHT22;54569;52.018;5.584;2022-12-07T07:38:05;4.40;88.40
67769;DHT22;54569;52.018;5.584;2022-12-07T07:40:31;4.40;88.50
67769;DHT22;54569;52.018;5.584;2022-12-07T07:42:57;4.30;88.50
67769;DHT22;54569;52.018;5.584;2022-12-07T07:45:25;4.30;88.60
67769;DHT22;54569;52.018;5.584;2022-12-07T07:47:51;4.30;88.60
67769;DHT22;54569;52.018;5.584;2022-12-07T07:50:16;4.40;88.80
67769;DHT22;54569;52.018;5.584;2022-12-07T07:52:42;4.40;88.70
67769;DHT22;54569;52.018;5.584;2022-12-07T07:55:09;4.40;88.70
67769;DHT22;54569;52.018;5.584;2022-12-07T07:57:35;4.40;88.60
67769;DHT22;54569;52.018;5.584;2022-12-07T08:00:04;4.50;88.50
67769;DHT22;54569;52.018;5.584;2022-12-07T08:02:38;4.50;88.40
67769;DHT22;54569;52.018;5.584;2022-12-07T08:05:03;4.50;88.30
67769;DHT22;54569;52.018;5.584;2022-12-07T08:07:29;4.50;88.20
67769;DHT22;54569;52.018;5.584;2022-12-07T08:09:55;4.60;88.10
67769;DHT22;54569;52.018;5.584;2022-12-07T08:12:20;4.60;88.00
67769;DHT22;54569;52.018;5.584;2022-12-07T08:14:46;4.70;87.90
67769;DHT22;54569;52.018;5.584;2022-12-07T08:17:12;4.80;87.80
67769;DHT22;54569;52.018;5.584;2022-12-07T08:19:38;4.90;87.70
67769;DHT22;54569;52.018;5.584;2022-12-07T08:22:03;5.00;87.40
67769;DHT22;54569;52.018;5.584;2022-12-07T08:24:29;5.20;87.10
67769;DHT22;54569;52.018;5.584;2022-12-07T08:26:54;5.40;86.60
67769;DHT22;54569;52.018;5.584;2022-12-07T08:29:20;5.50;86.10
67769;DHT22;54569;52.018;5.584;2022-12-07T08:31:46;5.60;85.70
67769;DHT22;54569;52.018;5.584;2022-12-07T08:34:12;5.70;85.20
67769;DHT22;54569;52.018;5.584;2022-12-07T08:36:38;5.80;85.00
67769;DHT22;54569;52.018;5.584;2022-12-07T08:39:04;5.80;84.90
67769;DHT22;54569;52.018;5.584;2022-12-07T08:41:30;5.80;84.80
67769;DHT22;54569;52.018;5.584;2022-12-07T08:43:56;5.90;84.70
67769;DHT22;54569;52.018;5.584;2022-12-07T08:46:30;6.00;84.50
67769;DHT22;54569;52.018;5.584;2022-12-07T08:49:13;6.00;84.40
67769;DHT22;54569;52.018;5.584;2022-12-07T08:51:40;6.60;86.00
67769;DHT22;54569;52.018;5.584;2022-12-07T08:54:09;7.60;82.70
67769;DHT22;54569;52.018;5.584;2022-12-07T08:56:36;8.90;80.30
67769;DHT22;54569;52.018;5.584;2022-12-07T08:59:02;10.70;75.70
67769;DHT22;54569;52.018;5.584;2022-12-07T09:01:28;12.30;71.00
67769;DHT22;54569;52.018;5.584;2022-12-07T09:03:54;13.60;67.50
67769;DHT22;54569;52.018;5.584;2022-12-07T09:06:20;14.00;65.30
67769;DHT22;54569;52.018;5.584;2022-12-07T09:08:49;13.60;65.70
67769;DHT22;54569;52.018;5.584;2022-12-07T09:11:15;12.90;66.80
67769;DHT22;54569;52.018;5.584;2022-12-07T09:13:41;12.20;68.50
67769;DHT22;54569;52.018;5.584;2022-12-07T09:16:07;11.40;70.50
67769;DHT22;54569;52.018;5.584;2022-12-07T09:18:33;10.70;72.40
67769;DHT22;54569;52.018;5.584;2022-12-07T09:20:58;10.20;74.10
67769;DHT22;54569;52.018;5.584;2022-12-07T09:23:24;9.90;75.30
67769;DHT22;54569;52.018;5.584;2022-12-07T09:25:50;9.60;76.40
67769;DHT22;54569;52.018;5.584;2022-12-07T09:28:15;9.60;77.20
67769;DHT22;54569;52.018;5.584;2022-12-07T09:30:48;9.80;76.80
67769;DHT22;54569;52.018;5.584;2022-12-07T09:33:14;10.20;77.00
67769;DHT22;54569;52.018;5.584;2022-12-07T09:35:51;11.50;74.90
67769;DHT22;54569;52.018;5.584;2022-12-07T09:38:18;12.30;70.60
67769;DHT22;54569;52.018;5.584;2022-12-07T09:40:44;12.40;70.10
67769;DHT22;54569;52.018;5.584;2022-12-07T09:43:21;12.20;70.00
67769;DHT22;54569;52.018;5.584;2022-12-07T09:45:48;11.70;70.30
67769;DHT22;54569;52.018;5.584;2022-12-07T09:48:18;11.40;72.00
67769;DHT22;54569;52.018;5.584;2022-12-07T09:50:46;11.20;72.90
67769;DHT22;54569;52.018;5.584;2022-12-07T09:53:26;11.00;73.60
67769;DHT22;54569;52.018;5.584;2022-12-07T09:55:52;11.00;73.80
67769;DHT22;54569;52.018;5.584;2022-12-07T09:58:26;11.10;73.60
67769;DHT22;54569;52.018;5.584;2022-12-07T10:00:53;11.00;73.10
67769;DHT22;54569;52.018;5.584;2022-12-07T10:03:21;10.70;69.00
67769;DHT22;54569;52.018;5.584;2022-12-07T10:05:50;10.40;74.50
67769;DHT22;54569;52.018;5.584;2022-12-07T10:08:17;10.20;75.60
67769;DHT22;54569;52.018;5.584;2022-12-07T10:10:44;10.10;76.00
67769;DHT22;54569;52.018;5.584;2022-12-07T10:13:17;9.90;76.20
67769;DHT22;54569;52.018;5.584;2022-12-07T10:18:31;9.40;77.20
67769;DHT22;54569;52.018;5.584;2022-12-07T10:21:17;9.40;77.00
67769;DHT22;54569;52.018;5.584;2022-12-07T10:29:16;9.20;77.70
67769;DHT22;54569;52.018;5.584;2022-12-07T10:31:43;9.20;77.30
67769;DHT22;54569;52.018;5.584;2022-12-07T10:34:36;9.40;77.10
67769;DHT22;54569;52.018;5.584;2022-12-07T10:39:54;10.00;76.10
67769;DHT22;54569;52.018;5.584;2022-12-07T10:44:47;11.80;71.50
67769;DHT22;54569;52.018;5.584;2022-12-07T11:01:11;11.40;72.00
67769;DHT22;54569;52.018;5.584;2022-12-07T11:03:53;11.10;72.50
67769;DHT22;54569;52.018;5.584;2022-12-07T11:06:33;11.00;73.20
67769;DHT22;54569;52.018;5.584;2022-12-07T11:15:17;13.40;66.50
67769;DHT22;54569;52.018;5.584;2022-12-07T11:25:31;13.50;67.30
67769;DHT22;54569;52.018;5.584;2022-12-07T11:28:28;13.50;67.60
67769;DHT22;54569;52.018;5.584;2022-12-07T11:34:00;12.60;69.30
67769;DHT22;54569;52.018;5.584;2022-12-07T11:39:20;11.80;71.30
67769;DHT22;54569;52.018;5.584;2022-12-07T11:41:52;11.50;72.30
67769;DHT22;54569;52.018;5.584;2022-12-07T11:44:31;11.20;73.40
67769;DHT22;54569;52.018;5.584;2022-12-07T11:46:59;11.00;74.20
67769;DHT22;54569;52.018;5.584;2022-12-07T11:49:47;10.90;74.30
67769;DHT22;54569;52.018;5.584;2022-12-07T11:55:18;10.80;73.80
67769;DHT22;54569;52.018;5.584;2022-12-07T11:57:48;10.70;73.70
67769;DHT22;54569;52.018;5.584;2022-12-07T12:00:17;10.60;74.10
67769;DHT22;54569;52.018;5.584;2022-12-07T12:02:51;10.60;74.20
67769;DHT22;54569;52.018;5.584;2022-12-07T12:05:25;10.50;74.20
67769;DHT22;54569;52.018;5.584;2022-12-07T12:08:12;10.20;74.30
67769;DHT22;54569;52.018;5.584;2022-12-07T12:10:55;10.00;75.00
67769;DHT22;54569;52.018;5.584;2022-12-07T12:19:19;10.40;74.20
67769;DHT22;54569;52.018;5.584;2022-12-07T12:21:49;10.40;73.70
67769;DHT22;54569;52.018;5.584;2022-12-07T12:24:23;10.40;73.80
67769;DHT22;54569;52.018;5.584;2022-12-07T12:27:03;10.50;73.60
67769;DHT22;54569;52.018;5.584;2022-12-07T12:29:38;10.60;72.90
67769;DHT22;54569;52.018;5.584;2022-12-07T12:32:41;10.70;72.50
67769;DHT22;54569;52.018;5.584;2022-12-07T12:35:33;10.90;71.90
67769;DHT22;54569;52.018;5.584;2022-12-07T12:38:29;11.00;71.70
67769;DHT22;54569;52.018;5.584;2022-12-07T12:40:56;11.10;71.20
67769;DHT22;54569;52.018;5.584;2022-12-07T12:54:21;10.00;73.80
67769;DHT22;54569;52.018;5.584;2022-12-07T12:59:41;9.90;73.20
67769;DHT22;54569;52.018;5.584;2022-12-07T13:15:45;10.20;72.60
67769;DHT22;54569;52.018;5.584;2022-12-07T13:29:14;10.50;70.80
67769;DHT22;54569;52.018;5.584;2022-12-07T13:34:34;10.70;71.60
67769;DHT22;54569;52.018;5.584;2022-12-07T13:37:17;10.80;71.30
67769;DHT22;54569;52.018;5.584;2022-12-07T13:39:48;10.80;71.40
67769;DHT22;54569;52.018;5.584;2022-12-07T13:44:54;10.70;71.50
67769;DHT22;54569;52.018;5.584;2022-12-07T13:47:36;10.50;72.40
67769;DHT22;54569;52.018;5.584;2022-12-07T13:52:55;10.00;72.00
67769;DHT22;54569;52.018;5.584;2022-12-07T13:55:21;9.80;73.30
67769;DHT22;54569;52.018;5.584;2022-12-07T13:57:53;9.60;73.70
67769;DHT22;54569;52.018;5.584;2022-12-07T14:00:23;9.40;73.90
67769;DHT22;54569;52.018;5.584;2022-12-07T14:03:02;9.20;74.30
67769;DHT22;54569;52.018;5.584;2022-12-07T14:05:29;9.00;74.50
67769;DHT22;54569;52.018;5.584;2022-12-07T14:08:03;8.80;75.10
67769;DHT22;54569;52.018;5.584;2022-12-07T14:10:30;8.80;75.40
67769;DHT22;54569;52.018;5.584;2022-12-07T14:12:56;8.80;75.70
67769;DHT22;54569;52.018;5.584;2022-12-07T14:15:27;8.80;75.80
67769;DHT22;54569;52.018;5.584;2022-12-07T14:17:54;8.70;75.60
67769;DHT22;54569;52.018;5.584;2022-12-07T14:20:40;8.70;75.70
67769;DHT22;54569;52.018;5.584;2022-12-07T14:23:23;8.70;75.30
67769;DHT22;54569;52.018;5.584;2022-12-07T14:25:51;8.70;75.30
67769;DHT22;54569;52.018;5.584;2022-12-07T14:28:37;8.60;75.90
67769;DHT22;54569;52.018;5.584;2022-12-07T14:31:12;8.50;75.50
67769;DHT22;54569;52.018;5.584;2022-12-07T14:33:40;8.50;76.30
67769;DHT22;54569;52.018;5.584;2022-12-07T14:36:08;8.40;76.50
67769;DHT22;54569;52.018;5.584;2022-12-07T14:38:34;8.40;76.70
67769;DHT22;54569;52.018;5.584;2022-12-07T14:41:00;8.30;76.80
67769;DHT22;54569;52.018;5.584;2022-12-07T14:43:45;8.20;77.10
67769;DHT22;54569;52.018;5.584;2022-12-07T14:46:10;8.20;77.30
67769;DHT22;54569;52.018;5.584;2022-12-07T14:48:36;8.20;77.40
67769;DHT22;54569;52.018;5.584;2022-12-07T14:51:02;8.10;77.40
67769;DHT22;54569;52.018;5.584;2022-12-07T14:53:31;8.00;77.50
67769;DHT22;54569;52.018;5.584;2022-12-07T14:55:59;7.90;77.70
67769;DHT22;54569;52.018;5.584;2022-12-07T14:58:24;7.90;77.90
67769;DHT22;54569;52.018;5.584;2022-12-07T15:00:50;7.90;78.10
67769;DHT22;54569;52.018;5.584;2022-12-07T15:03:18;7.90;78.10
67769;DHT22;54569;52.018;5.584;2022-12-07T15:05:53;7.80;78.20
67769;DHT22;54569;52.018;5.584;2022-12-07T15:08:18;7.80;79.00
67769;DHT22;54569;52.018;5.584;2022-12-07T15:10:44;7.80;78.40
67769;DHT22;54569;52.018;5.584;2022-12-07T15:13:10;7.70;78.50
67769;DHT22;54569;52.018;5.584;2022-12-07T15:15:54;7.70;78.60
67769;DHT22;54569;52.018;5.584;2022-12-07T15:18:21;7.60;78.20
67769;DHT22;54569;52.018;5.584;2022-12-07T15:20:48;7.50;78.70
67769;DHT22;54569;52.018;5.584;2022-12-07T15:23:14;7.50;78.80
67769;DHT22;54569;52.018;5.584;2022-12-07T15:25:44;7.40;79.00
67769;DHT22;54569;52.018;5.584;2022-12-07T15:28:11;7.40;79.00
67769;DHT22;54569;52.018;5.584;2022-12-07T15:30:38;7.40;79.20
67769;DHT22;54569;52.018;5.584;2022-12-07T15:33:04;7.30;79.10
67769;DHT22;54569;52.018;5.584;2022-12-07T15:35:29;7.30;79.20
67769;DHT22;54569;52.018;5.584;2022-12-07T15:37:55;7.30;79.20
67769;DHT22;54569;52.018;5.584;2022-12-07T15:40:21;7.20;79.10
67769;DHT22;54569;52.018;5.584;2022-12-07T15:42:49;7.20;79.20
67769;DHT22;54569;52.018;5.584;2022-12-07T15:45:15;7.20;79.20
67769;DHT22;54569;52.018;5.584;2022-12-07T15:47:42;7.20;79.20
67769;DHT22;54569;52.018;5.584;2022-12-07T15:50:11;7.20;79.20
67769;DHT22;54569;52.018;5.584;2022-12-07T15:52:38;7.10;79.10
67769;DHT22;54569;52.018;5.584;2022-12-07T15:55:04;7.10;79.10
67769;DHT22;54569;52.018;5.584;2022-12-07T15:57:31;7.10;79.20
67769;DHT22;54569;52.018;5.584;2022-12-07T15:59:56;7.10;79.20
67769;DHT22;54569;52.018;5.584;2022-12-07T16:02:23;7.10;79.30
67769;DHT22;54569;52.018;5.584;2022-12-07T16:04:49;7.00;79.20
67769;DHT22;54569;52.018;5.584;2022-12-07T16:07:16;7.00;79.20
67769;DHT22;54569;52.018;5.584;2022-12-07T16:09:42;6.90;79.30
67769;DHT22;54569;52.018;5.584;2022-12-07T16:12:09;6.90;79.30
67769;DHT22;54569;52.018;5.584;2022-12-07T16:14:35;6.90;79.30
67769;DHT22;54569;52.018;5.584;2022-12-07T16:17:00;6.90;79.40
67769;DHT22;54569;52.018;5.584;2022-12-07T16:19:26;6.80;79.40
67769;DHT22;54569;52.018;5.584;2022-12-07T16:21:52;6.80;79.50
67769;DHT22;54569;52.018;5.584;2022-12-07T16:24:17;6.70;79.50
67769;DHT22;54569;52.018;5.584;2022-12-07T16:26:44;6.70;79.60
67769;DHT22;54569;52.018;5.584;2022-12-07T16:29:13;6.60;79.70
67769;DHT22;54569;52.018;5.584;2022-12-07T16:31:39;6.50;79.80
67769;DHT22;54569;52.018;5.584;2022-12-07T16:34:05;6.40;79.90
67769;DHT22;54569;52.018;5.584;2022-12-07T16:36:31;6.40;80.10
67769;DHT22;54569;52.018;5.584;2022-12-07T16:38:58;6.40;80.10
67769;DHT22;54569;52.018;5.584;2022-12-07T16:41:24;6.30;80.20
67769;DHT22;54569;52.018;5.584;2022-12-07T16:43:50;6.30;80.30
67769;DHT22;54569;52.018;5.584;2022-12-07T16:46:16;6.20;80.40
67769;DHT22;54569;52.018;5.584;2022-12-07T16:48:42;6.20;80.40
67769;DHT22;54569;52.018;5.584;2022-12-07T16:51:09;6.20;80.50
67769;DHT22;54569;52.018;5.584;2022-12-07T16:53:36;6.20;80.50
67769;DHT22;54569;52.018;5.584;2022-12-07T16:56:03;6.20;80.60
67769;DHT22;54569;52.018;5.584;2022-12-07T16:58:29;6.20;80.60
67769;DHT22;54569;52.018;5.584;2022-12-07T17:00:55;6.20;80.60
67769;DHT22;54569;52.018;5.584;2022-12-07T17:03:21;6.20;80.60
67769;DHT22;54569;52.018;5.584;2022-12-07T17:05:48;6.20;81.30
67769;DHT22;54569;52.018;5.584;2022-12-07T17:08:14;6.20;80.60
67769;DHT22;54569;52.018;5.584;2022-12-07T17:10:42;6.10;80.60
67769;DHT22;54569;52.018;5.584;2022-12-07T17:13:09;6.10;80.60
67769;DHT22;54569;52.018;5.584;2022-12-07T17:16:05;6.10;80.60
67769;DHT22;54569;52.018;5.584;2022-12-07T17:18:33;6.10;80.70
67769;DHT22;54569;52.018;5.584;2022-12-07T17:21:03;6.00;80.60
67769;DHT22;54569;52.018;5.584;2022-12-07T17:23:30;6.00;80.70
67769;DHT22;54569;52.018;5.584;2022-12-07T17:25:56;6.00;80.70
67769;DHT22;54569;52.018;5.584;2022-12-07T17:28:21;6.00;80.80
67769;DHT22;54569;52.018;5.584;2022-12-07T17:30:47;5.90;80.70
67769;DHT22;54569;52.018;5.584;2022-12-07T17:33:13;5.90;80.70
67769;DHT22;54569;52.018;5.584;2022-12-07T17:35:38;5.90;80.70
67769;DHT22;54569;52.018;5.584;2022-12-07T17:38:04;5.90;80.60
67769;DHT22;54569;52.018;5.584;2022-12-07T17:40:29;5.90;80.60
67769;DHT22;54569;52.018;5.584;2022-12-07T17:42:55;5.90;80.60
67769;DHT22;54569;52.018;5.584;2022-12-07T17:45:21;5.90;80.60
67769;DHT22;54569;52.018;5.584;2022-12-07T17:47:46;5.90;80.60
67769;DHT22;54569;52.018;5.584;2022-12-07T17:50:12;5.90;80.70
67769;DHT22;54569;52.018;5.584;2022-12-07T17:52:39;5.90;80.80
67769;DHT22;54569;52.018;5.584;2022-12-07T17:55:23;5.90;80.80
67769;DHT22;54569;52.018;5.584;2022-12-07T17:57:49;5.90;80.80
67769;DHT22;54569;52.018;5.584;2022-12-07T18:00:16;5.90;80.80
67769;DHT22;54569;52.018;5.584;2022-12-07T18:02:42;5.90;80.80
67769;DHT22;54569;52.018;5.584;2022-12-07T18:05:08;5.90;80.90
67769;DHT22;54569;52.018;5.584;2022-12-07T18:07:34;5.90;80.90
67769;DHT22;54569;52.018;5.584;2022-12-07T18:10:00;5.90;80.90
67769;DHT22;54569;52.018;5.584;2022-12-07T18:12:26;5.90;80.90